Time;durP1;ratioP1;P1;durP2;ratioP2;P2;SDS_P1;SDS_P2;PMS_P1;PMS_P2;Temp;Humidity;BMP_temperature;BMP_pressure;BME280_temperature;BME280_humidity;BME280_pressure;Samples;Min_cycle;Max_cycle;Signal;HPM_P1;HPM_P2
2022/02/15 00:01:10;;;;;;;13.57;10.97;;;2.50;75.40;;;;;;6302529;28;20460;-62
2022/02/15 00:04:14;;;;;;;14.17;10.77;;;2.50;75.50;;;;;;6302652;28;20454;-62
2022/02/15 00:07:17;;;;;;;14.77;10.03;;;2.60;75.50;;;;;;6301337;28;20477;-62
2022/02/15 00:10:21;;;;;;;14.33;11.90;;;2.50;75.70;;;;;;6299811;28;20462;-62
2022/02/15 00:13:29;;;;;;;14.40;10.80;;;2.50;75.80;;;;;;6299511;28;20472;-62
2022/02/15 00:16:34;;;;;;;15.50;10.50;;;2.60;75.90;;;;;;6299614;28;20466;-62
2022/02/15 00:19:37;;;;;;;11.30;10.17;;;2.60;76.10;;;;;;6304846;28;20477;-62
2022/02/15 00:22:40;;;;;;;16.50;10.53;;;2.60;76.00;;;;;;6305692;28;20481;-62
2022/02/15 00:25:43;;;;;;;11.93;10.27;;;2.60;76.00;;;;;;6305358;28;20499;-62
2022/02/15 00:28:47;;;;;;;14.10;11.20;;;2.70;75.90;;;;;;6299757;28;20518;-63
2022/02/15 00:31:51;;;;;;;11.50;10.00;;;2.60;76.00;;;;;;6305584;28;20484;-63
2022/02/15 00:34:54;;;;;;;13.07;11.40;;;2.60;76.10;;;;;;6306417;28;20952;-63
2022/02/15 00:37:57;;;;;;;16.50;11.10;;;2.60;76.20;;;;;;6305404;28;20860;-63
2022/02/15 00:41:03;;;;;;;14.47;11.00;;;2.60;76.20;;;;;;6304519;28;20477;-62
2022/02/15 00:44:06;;;;;;;15.53;11.90;;;2.50;76.30;;;;;;6306030;28;20480;-64
2022/02/15 00:47:11;;;;;;;10.40;9.40;;;2.50;76.40;;;;;;6304344;28;20805;-62
2022/02/15 00:50:14;;;;;;;13.20;9.93;;;2.50;76.20;;;;;;6304087;28;20479;-62
2022/02/15 00:53:17;;;;;;;10.60;9.50;;;2.50;76.40;;;;;;6304275;28;20823;-63
2022/02/15 00:56:20;;;;;;;12.10;9.77;;;2.50;76.50;;;;;;6307321;28;21038;-63
2022/02/15 00:59:23;;;;;;;12.13;9.93;;;2.50;76.50;;;;;;6306571;28;20530;-63
2022/02/15 01:02:28;;;;;;;12.77;9.30;;;2.50;77.00;;;;;;6304620;28;20485;-63
2022/02/15 01:05:31;;;;;;;12.93;11.57;;;2.50;77.30;;;;;;6304436;28;20477;-62
2022/02/15 01:08:34;;;;;;;13.07;8.87;;;2.40;77.60;;;;;;6303390;28;20837;-62
2022/02/15 01:11:38;;;;;;;13.50;9.20;;;2.40;77.70;;;;;;6303568;28;20469;-63
2022/02/15 01:14:41;;;;;;;11.90;9.67;;;2.40;77.70;;;;;;6302981;28;20909;-63
2022/02/15 01:17:46;;;;;;;12.13;9.63;;;2.40;78.20;;;;;;6303445;28;20484;-61
2022/02/15 01:20:50;;;;;;;12.30;9.13;;;2.40;77.90;;;;;;6303328;28;20474;-64
2022/02/15 01:23:53;;;;;;;9.13;8.23;;;2.40;77.70;;;;;;6304049;28;20480;-64
2022/02/15 01:26:56;;;;;;;11.40;8.87;;;2.40;77.60;;;;;;6303693;28;20482;-64
2022/02/15 01:29:59;;;;;;;10.67;9.57;;;2.40;77.60;;;;;;6302996;28;20469;-63
2022/02/15 01:33:04;;;;;;;11.27;8.43;;;2.50;77.80;;;;;;6297648;28;20481;-63
2022/02/15 01:36:07;;;;;;;11.43;8.60;;;2.40;77.90;;;;;;6302470;28;20485;-63
2022/02/15 01:39:10;;;;;;;10.90;8.40;;;2.40;78.00;;;;;;6302474;28;20789;-63
2022/02/15 01:42:17;;;;;;;10.33;8.40;;;2.40;78.30;;;;;;6303539;28;20480;-64
2022/02/15 01:45:20;;;;;;;11.47;9.53;;;2.40;78.60;;;;;;6303045;28;20481;-62
2022/02/15 01:48:25;;;;;;;11.93;8.57;;;2.30;78.10;;;;;;6302397;28;20477;-62
2022/02/15 01:51:28;;;;;;;13.77;8.33;;;2.30;78.30;;;;;;6302418;28;20473;-62
2022/02/15 01:54:32;;;;;;;12.40;8.57;;;2.30;78.30;;;;;;6301896;28;20848;-62
2022/02/15 01:57:35;;;;;;;8.27;7.53;;;2.30;78.30;;;;;;6304718;28;20508;-64
2022/02/15 02:00:38;;;;;;;9.93;7.93;;;2.30;78.30;;;;;;6304715;28;20466;-63
2022/02/15 02:03:43;;;;;;;11.20;8.73;;;2.30;78.40;;;;;;6304740;28;20481;-64
2022/02/15 02:06:45;;;;;;;8.73;7.70;;;2.40;78.40;;;;;;6304807;28;20470;-64
2022/02/15 02:09:48;;;;;;;10.73;8.23;;;2.30;79.10;;;;;;6302252;28;20469;-64
2022/02/15 02:12:51;;;;;;;9.80;8.80;;;2.30;78.50;;;;;;6301685;28;20481;-63
2022/02/15 02:15:55;;;;;;;13.80;8.00;;;2.30;78.30;;;;;;6306111;28;20964;-64
2022/02/15 02:18:59;;;;;;;11.93;8.03;;;2.30;78.30;;;;;;6305922;28;20526;-64
2022/02/15 02:22:04;;;;;;;9.67;8.40;;;2.40;78.50;;;;;;6304833;28;20457;-63
2022/02/15 02:25:08;;;;;;;11.50;8.23;;;2.30;78.60;;;;;;6305655;28;20464;-62
2022/02/15 02:28:12;;;;;;;11.37;7.90;;;2.30;78.70;;;;;;6304773;28;20445;-64
2022/02/15 02:31:15;;;;;;;10.73;7.27;;;2.30;78.60;;;;;;6303631;28;20446;-64
2022/02/15 02:34:18;;;;;;;9.73;7.70;;;2.30;78.70;;;;;;6297202;28;20475;-64
2022/02/15 02:37:23;;;;;;;11.57;8.10;;;2.20;78.70;;;;;;6307245;28;20469;-64
2022/02/15 02:40:27;;;;;;;11.43;8.70;;;2.20;78.70;;;;;;6302469;28;20497;-62
2022/02/15 02:43:30;;;;;;;9.87;7.37;;;2.10;78.30;;;;;;6301329;28;20535;-62
2022/02/15 02:46:35;;;;;;;9.80;8.40;;;2.10;79.00;;;;;;6302553;28;20953;-63
2022/02/15 02:49:38;;;;;;;14.50;8.10;;;2.10;79.40;;;;;;6305590;28;20465;-62
2022/02/15 02:52:43;;;;;;;11.77;8.93;;;2.10;79.40;;;;;;6308326;28;20477;-62
2022/02/15 02:55:46;;;;;;;12.53;9.67;;;2.00;79.60;;;;;;6303945;28;20488;-62
2022/02/15 02:58:49;;;;;;;10.47;8.73;;;2.00;79.90;;;;;;6301862;28;20965;-62
2022/02/15 03:01:52;;;;;;;12.73;8.53;;;2.00;80.70;;;;;;6301197;28;20470;-62
2022/02/15 03:04:55;;;;;;;10.53;7.70;;;2.00;80.20;;;;;;6304206;28;20835;-64
2022/02/15 03:08:00;;;;;;;11.13;9.00;;;2.00;80.30;;;;;;6305316;28;20842;-63
2022/02/15 03:11:03;;;;;;;10.43;8.27;;;2.00;80.50;;;;;;6303549;28;20470;-61
2022/02/15 03:14:06;;;;;;;11.00;8.77;;;2.00;80.30;;;;;;6301691;28;20481;-62
2022/02/15 03:17:09;;;;;;;12.17;9.07;;;2.00;80.40;;;;;;6302109;28;20776;-63
2022/02/15 03:20:13;;;;;;;10.33;7.63;;;1.90;80.60;;;;;;6300809;28;20477;-62
2022/02/15 03:23:18;;;;;;;10.10;7.40;;;1.70;81.10;;;;;;6300429;28;20473;-62
2022/02/15 03:26:22;;;;;;;11.03;6.40;;;1.70;81.40;;;;;;6301137;28;20458;-62
2022/02/15 03:29:25;;;;;;;7.97;7.13;;;1.70;82.20;;;;;;6301921;28;20481;-62
2022/02/15 03:32:28;;;;;;;8.53;7.60;;;1.80;83.00;;;;;;6300173;28;20540;-61
2022/02/15 03:35:31;;;;;;;9.93;8.63;;;1.90;82.70;;;;;;6304503;28;20473;-61
2022/02/15 03:38:35;;;;;;;13.10;8.83;;;1.90;82.50;;;;;;6301345;28;20960;-61
2022/02/15 03:44:59;;;;;;;8.70;7.80;;;1.90;82.40;;;;;;6301054;28;20470;-63
2022/02/15 03:48:04;;;;;;;11.17;7.50;;;1.80;82.20;;;;;;6300574;28;20478;-64
2022/02/15 03:51:07;;;;;;;9.63;7.30;;;1.80;82.20;;;;;;6300643;28;20965;-63
2022/02/15 03:54:12;;;;;;;10.40;8.40;;;1.80;82.30;;;;;;6299376;28;20484;-63
2022/02/15 03:57:15;;;;;;;8.80;7.37;;;1.90;82.50;;;;;;6299906;28;20481;-62
2022/02/15 04:00:18;;;;;;;9.80;7.50;;;1.90;82.60;;;;;;6300010;28;20481;-62
2022/02/15 04:03:22;;;;;;;8.23;6.10;;;1.80;82.40;;;;;;6299761;28;20492;-62
2022/02/15 04:06:25;;;;;;;9.43;7.23;;;1.80;82.50;;;;;;6299867;28;20477;-62
2022/02/15 04:09:29;;;;;;;7.10;6.47;;;1.80;83.10;;;;;;6300014;28;20477;-62
2022/02/15 04:12:33;;;;;;;8.13;5.93;;;1.80;83.30;;;;;;6299066;28;20772;-62
2022/02/15 04:15:36;;;;;;;7.77;6.93;;;1.80;83.20;;;;;;6299574;28;20833;-63
2022/02/15 04:18:43;;;;;;;8.00;6.83;;;1.80;83.00;;;;;;6300038;28;20957;-63
2022/02/15 04:21:46;;;;;;;9.13;6.80;;;1.90;83.40;;;;;;6302288;28;20480;-63
2022/02/15 04:24:51;;;;;;;8.70;7.67;;;1.80;83.20;;;;;;6301990;28;20984;-63
2022/02/15 04:27:54;;;;;;;11.50;8.37;;;1.90;83.40;;;;;;6301423;28;20466;-63
2022/02/15 04:30:57;;;;;;;7.07;6.37;;;1.90;83.20;;;;;;6303652;28;20465;-63
2022/02/15 04:34:00;;;;;;;8.33;7.50;;;1.90;83.10;;;;;;6301676;28;20571;-62
2022/02/15 04:37:04;;;;;;;10.80;6.40;;;1.90;83.20;;;;;;6299592;28;20489;-62
2022/02/15 04:40:10;;;;;;;10.67;8.03;;;1.90;83.20;;;;;;6295876;28;20905;-62
2022/02/15 04:43:13;;;;;;;8.73;7.00;;;1.90;83.60;;;;;;6299301;28;20481;-63
2022/02/15 04:46:16;;;;;;;11.60;6.73;;;2.00;83.30;;;;;;6302375;28;20776;-64
2022/02/15 04:49:19;;;;;;;8.97;6.30;;;1.90;83.50;;;;;;6300780;28;20457;-63
2022/02/15 04:52:22;;;;;;;8.20;7.40;;;1.90;83.50;;;;;;6303389;28;20515;-64
2022/02/15 04:55:26;;;;;;;10.40;6.53;;;1.90;83.90;;;;;;6304590;28;20464;-64
2022/02/15 04:58:31;;;;;;;8.00;7.20;;;1.90;84.30;;;;;;6302921;28;20792;-63
2022/02/15 05:01:34;;;;;;;9.77;5.90;;;1.90;84.50;;;;;;6299247;28;20481;-63
2022/02/15 05:04:50;;;;;;;8.57;7.63;;;1.90;84.60;;;;;;6303203;28;20469;-64
2022/02/15 05:07:53;;;;;;;15.13;7.80;;;1.80;84.60;;;;;;6306601;28;20477;-65
2022/02/15 05:10:57;;;;;;;11.47;7.60;;;1.70;84.60;;;;;;6308020;28;20480;-64
2022/02/15 05:14:02;;;;;;;14.73;7.60;;;1.70;85.20;;;;;;6307042;28;20854;-64
2022/02/15 05:17:06;;;;;;;7.90;7.10;;;1.70;85.50;;;;;;6307613;28;20511;-64
2022/02/15 05:20:10;;;;;;;8.80;6.90;;;1.70;85.50;;;;;;6304107;28;20833;-63
2022/02/15 05:23:13;;;;;;;8.97;7.40;;;1.80;85.80;;;;;;6302937;28;20972;-63
2022/02/15 05:26:17;;;;;;;7.77;6.63;;;1.80;85.60;;;;;;6303295;28;20466;-63
2022/02/15 05:29:21;;;;;;;6.43;5.80;;;1.80;85.60;;;;;;6303450;28;20469;-63
2022/02/15 05:32:24;;;;;;;8.67;5.63;;;1.80;85.50;;;;;;6302662;28;20543;-63
2022/02/15 05:35:27;;;;;;;14.60;8.03;;;1.80;85.60;;;;;;6303054;28;20485;-63
2022/02/15 05:38:30;;;;;;;8.40;6.90;;;1.80;85.70;;;;;;6302454;28;20495;-63
2022/02/15 05:41:35;;;;;;;9.43;6.50;;;1.80;85.80;;;;;;6303125;28;20473;-63
2022/02/15 05:44:38;;;;;;;8.00;6.53;;;1.90;85.90;;;;;;6302719;28;20473;-63
2022/02/15 05:47:41;;;;;;;12.10;7.30;;;1.80;85.90;;;;;;6298886;28;20469;-63
2022/02/15 05:50:50;;;;;;;7.77;6.90;;;1.90;86.00;;;;;;6302866;28;20465;-63
2022/02/15 05:53:53;;;;;;;10.47;6.87;;;1.90;85.80;;;;;;6302697;28;20476;-63
2022/02/15 05:56:59;;;;;;;9.90;6.87;;;1.90;85.90;;;;;;6302901;28;20469;-63
2022/02/15 06:00:03;;;;;;;8.43;6.97;;;1.80;85.90;;;;;;6306779;28;20515;-64
2022/02/15 06:04:10;;;;;;;11.60;7.63;;;1.90;86.50;;;;;;6304685;28;20484;-64
2022/02/15 06:06:29;;;;;;;12.33;7.43;;;1.90;86.90;;;;;;6303803;28;20474;-63
2022/02/15 06:09:32;;;;;;;13.10;9.00;;;1.90;86.90;;;;;;6301638;28;20473;-64
2022/02/15 06:12:39;;;;;;;9.63;6.00;;;1.90;87.00;;;;;;6301704;28;20933;-64
2022/02/15 06:15:42;;;;;;;11.67;7.03;;;1.90;87.40;;;;;;6301133;28;20473;-63
2022/02/15 06:18:45;;;;;;;11.50;7.70;;;1.90;87.30;;;;;;6301657;28;20567;-63
2022/02/15 06:21:49;;;;;;;10.03;7.43;;;1.90;87.20;;;;;;6301692;28;20958;-63
2022/02/15 06:24:52;;;;;;;17.33;7.60;;;2.00;87.30;;;;;;6301553;28;20469;-64
2022/02/15 06:27:57;;;;;;;9.93;6.67;;;2.00;87.30;;;;;;6301743;28;20469;-63
2022/02/15 06:31:00;;;;;;;12.63;5.80;;;2.00;87.20;;;;;;6301076;28;20454;-63
2022/02/15 06:34:04;;;;;;;11.67;7.20;;;2.10;87.10;;;;;;6301614;28;20893;-63
2022/02/15 06:37:08;;;;;;;9.17;6.70;;;2.10;87.00;;;;;;6302834;28;20453;-63
2022/02/15 06:40:13;;;;;;;12.20;6.40;;;2.10;86.50;;;;;;6301766;28;20510;-63
2022/02/15 06:43:17;;;;;;;13.40;7.00;;;2.20;86.60;;;;;;6300972;28;20470;-63
2022/02/15 06:46:20;;;;;;;9.70;7.07;;;2.20;86.30;;;;;;6301032;28;20897;-63
2022/02/15 06:49:24;;;;;;;8.17;6.90;;;2.20;86.10;;;;;;6301159;28;20462;-63
2022/02/15 06:52:27;;;;;;;8.40;7.53;;;2.30;86.20;;;;;;6301002;28;21010;-63
2022/02/15 06:55:50;;;;;;;11.87;6.30;;;2.30;86.80;;;;;;6301385;28;21000;-63
2022/02/15 06:58:57;;;;;;;8.03;7.23;;;2.30;86.10;;;;;;6302754;28;20470;-63
2022/02/15 07:02:01;;;;;;;13.90;7.40;;;2.50;86.10;;;;;;6302188;28;20492;-63
2022/02/15 07:05:05;;;;;;;12.17;8.53;;;2.50;85.90;;;;;;6300703;28;20488;-63
2022/02/15 07:08:08;;;;;;;7.57;6.00;;;2.50;85.80;;;;;;6301957;28;20544;-63
2022/02/15 07:11:12;;;;;;;9.87;7.40;;;2.60;85.70;;;;;;6301682;28;20934;-62
2022/02/15 07:14:17;;;;;;;11.83;8.50;;;2.50;85.50;;;;;;6300450;28;20482;-63
2022/02/15 07:17:20;;;;;;;12.27;6.90;;;2.60;85.60;;;;;;6300604;28;20474;-63
2022/02/15 07:20:23;;;;;;;10.20;7.23;;;2.60;85.30;;;;;;6300478;28;20492;-63
2022/02/15 07:23:26;;;;;;;10.63;8.83;;;2.70;85.50;;;;;;6300293;28;20473;-62
2022/02/15 07:26:30;;;;;;;9.93;8.00;;;2.80;85.50;;;;;;6299973;28;20481;-63
2022/02/15 07:29:34;;;;;;;18.30;9.00;;;2.80;85.10;;;;;;6300264;28;20469;-62
2022/02/15 07:32:37;;;;;;;10.43;7.77;;;2.90;84.70;;;;;;6300405;28;20478;-63
2022/02/15 07:35:40;;;;;;;12.00;7.43;;;3.00;84.60;;;;;;6299966;28;20478;-63
2022/02/15 07:38:44;;;;;;;9.70;7.00;;;3.10;84.30;;;;;;6300367;28;20484;-63
2022/02/15 07:41:49;;;;;;;10.57;7.20;;;3.20;83.90;;;;;;6300373;28;20473;-62
2022/02/15 07:44:54;;;;;;;17.47;7.53;;;3.30;83.80;;;;;;6300175;28;20491;-62
2022/02/15 07:47:57;;;;;;;21.20;16.10;;;3.40;83.40;;;;;;6300824;28;20477;-62
2022/02/15 07:51:00;;;;;;;14.70;9.97;;;3.60;83.00;;;;;;6301687;28;20470;-63
2022/02/15 07:54:03;;;;;;;17.57;8.47;;;3.70;82.10;;;;;;6290045;28;20852;-62
2022/02/15 07:57:06;;;;;;;10.93;7.80;;;3.80;81.50;;;;;;6299580;28;20469;-63
2022/02/15 08:00:13;;;;;;;9.67;7.73;;;4.00;81.20;;;;;;6300188;28;20466;-63
2022/02/15 08:03:16;;;;;;;9.63;6.97;;;4.10;80.80;;;;;;6300299;28;20473;-63
2022/02/15 08:06:19;;;;;;;10.73;7.33;;;4.20;80.20;;;;;;6300022;28;20478;-63
2022/02/15 08:09:24;;;;;;;10.20;8.10;;;4.30;79.50;;;;;;6300204;28;20523;-64
2022/02/15 08:12:28;;;;;;;15.50;7.80;;;4.50;79.10;;;;;;6299461;28;20488;-64
2022/02/15 08:15:34;;;;;;;10.07;7.57;;;4.60;78.70;;;;;;6299845;28;20784;-63
2022/02/15 08:18:41;;;;;;;14.37;7.27;;;4.80;78.00;;;;;;6299274;28;20482;-63
2022/02/15 08:21:44;;;;;;;9.30;7.07;;;4.90;77.30;;;;;;6298972;28;20473;-63
2022/02/15 08:24:47;;;;;;;9.43;6.80;;;5.10;76.50;;;;;;6299616;28;20820;-63
2022/02/15 08:27:50;;;;;;;11.73;6.77;;;5.20;76.10;;;;;;6300383;28;20489;-63
2022/02/15 08:30:55;;;;;;;11.70;6.80;;;5.30;75.50;;;;;;6300755;28;20488;-63
2022/02/15 08:33:58;;;;;;;10.83;6.37;;;5.40;74.80;;;;;;6299675;28;20500;-65
2022/02/15 08:37:02;;;;;;;8.87;6.37;;;5.60;74.30;;;;;;6299688;28;20975;-63
2022/02/15 08:40:08;;;;;;;11.33;6.90;;;5.80;73.30;;;;;;6303277;28;20469;-63
2022/02/15 08:43:16;;;;;;;8.60;6.10;;;5.90;72.60;;;;;;6304149;28;20454;-64
2022/02/15 08:46:20;;;;;;;7.40;5.30;;;6.10;71.70;;;;;;6304702;28;20607;-64
2022/02/15 08:49:24;;;;;;;12.90;6.97;;;6.40;71.50;;;;;;6303932;28;20461;-63
2022/02/15 08:52:27;;;;;;;7.30;5.17;;;6.60;70.30;;;;;;6303780;28;20469;-63
2022/02/15 08:55:31;;;;;;;8.20;5.30;;;6.90;68.80;;;;;;6298982;28;20938;-63
2022/02/15 08:58:34;;;;;;;9.10;5.70;;;7.20;67.40;;;;;;6303775;28;20478;-63
2022/02/15 09:01:38;;;;;;;10.53;5.17;;;7.60;66.10;;;;;;6303729;28;20489;-63
2022/02/15 09:04:41;;;;;;;7.20;5.33;;;7.90;63.70;;;;;;6303405;28;20958;-63
2022/02/15 09:07:45;;;;;;;8.00;4.90;;;8.40;62.10;;;;;;6303881;28;20475;-63
2022/02/15 09:10:48;;;;;;;5.67;5.07;;;10.30;58.90;;;;;;6303815;28;20476;-63
2022/02/15 09:13:51;;;;;;;10.30;5.87;;;14.00;51.10;;;;;;6303071;28;20477;-63
2022/02/15 09:16:55;;;;;;;7.80;6.03;;;18.30;41.40;;;;;;6303692;28;20753;-63
2022/02/15 09:19:58;;;;;;;7.93;6.03;;;22.00;34.40;;;;;;6303026;28;20468;-63
2022/02/15 09:23:01;;;;;;;10.63;6.50;;;25.00;29.40;;;;;;6303498;28;20242;-64
2022/02/15 09:26:04;;;;;;;6.90;6.20;;;27.50;26.30;;;;;;6303514;28;20238;-64
2022/02/15 09:29:13;;;;;;;12.07;5.80;;;29.60;23.10;;;;;;6303384;28;20552;-64
2022/02/15 09:32:17;;;;;;;8.30;5.80;;;30.90;21.30;;;;;;6302932;28;20241;-64
2022/02/15 09:35:20;;;;;;;8.43;6.77;;;31.00;20.40;;;;;;6303222;28;20231;-64
2022/02/15 09:38:23;;;;;;;9.37;7.13;;;30.60;19.80;;;;;;6303018;28;20226;-64
2022/02/15 09:41:28;;;;;;;11.93;6.90;;;29.30;20.10;;;;;;6302258;28;20226;-64
2022/02/15 09:44:31;;;;;;;10.67;7.00;;;26.50;21.50;;;;;;6302641;28;20226;-63
2022/02/15 09:47:37;;;;;;;9.60;7.40;;;24.20;23.30;;;;;;6302513;28;20227;-63
2022/02/15 09:50:41;;;;;;;11.50;7.73;;;22.20;24.80;;;;;;6303175;28;20540;-63
2022/02/15 09:53:45;;;;;;;10.47;6.67;;;20.70;26.60;;;;;;6303562;28;20241;-63
2022/02/15 09:56:48;;;;;;;10.50;8.13;;;20.20;27.80;;;;;;6302444;28;20223;-63
2022/02/15 09:59:51;;;;;;;10.87;8.60;;;22.70;27.20;;;;;;6302508;28;20227;-64
2022/02/15 10:02:59;;;;;;;11.60;8.10;;;26.40;24.30;;;;;;6302710;28;20234;-63
2022/02/15 10:06:11;;;;;;;14.53;10.07;;;29.20;22.20;;;;;;6303171;28;20233;-63
2022/02/15 10:09:14;;;;;;;10.45;8.55;;;30.70;20.70;;;;;;6303031;28;20701;-65
2022/02/15 10:12:18;;;;;;;12.65;8.40;;;32.60;19.60;;;;;;6302723;28;20674;-64
2022/02/15 10:15:29;;;;;;;8.75;7.55;;;33.50;18.60;;;;;;6303185;28;20230;-64
2022/02/15 10:18:37;;;;;;;7.90;5.75;;;34.60;18.30;;;;;;6302340;28;20677;-63
2022/02/15 10:21:41;;;;;;;8.30;5.80;;;34.80;18.20;;;;;;6302250;28;20235;-65
2022/02/15 10:24:51;;;;;;;6.53;5.90;;;35.10;17.90;;;;;;6302664;28;20231;-65
2022/02/15 10:27:54;;;;;;;8.05;6.13;;;36.40;17.20;;;;;;6302662;28;20234;-63
2022/02/15 10:30:59;;;;;;;11.95;6.68;;;37.10;16.60;;;;;;6302362;28;20226;-63
2022/02/15 10:34:06;;;;;;;6.90;6.07;;;36.90;16.40;;;;;;6303080;28;20227;-63
2022/02/15 10:37:10;;;;;;;10.40;5.93;;;37.30;16.20;;;;;;6302785;28;20209;-63
2022/02/15 10:40:13;;;;;;;6.05;5.43;;;37.90;15.80;;;;;;6302329;28;20272;-63
2022/02/15 10:43:17;;;;;;;7.40;5.57;;;38.60;15.60;;;;;;6302862;28;20284;-64
2022/02/15 10:46:22;;;;;;;6.45;3.88;;;38.90;15.40;;;;;;6301497;28;20210;-64
2022/02/15 10:49:27;;;;;;;7.00;4.07;;;39.90;14.70;;;;;;6301384;28;20231;-64
2022/02/15 10:52:30;;;;;;;6.60;4.63;;;40.50;14.40;;;;;;6300546;28;20292;-63
2022/02/15 10:55:34;;;;;;;5.68;4.80;;;40.90;14.10;;;;;;6301083;28;20556;-64
2022/02/15 10:58:37;;;;;;;8.65;4.57;;;41.80;13.80;;;;;;6300935;28;20233;-65
2022/02/15 11:01:43;;;;;;;5.75;4.63;;;43.00;13.30;;;;;;6300115;28;20662;-63
2022/02/15 11:04:49;;;;;;;6.32;5.28;;;43.80;13.00;;;;;;6301380;28;20231;-63
2022/02/15 11:07:52;;;;;;;7.43;4.78;;;42.60;12.70;;;;;;6301091;28;20219;-63
2022/02/15 11:11:01;;;;;;;7.05;5.60;;;42.00;12.90;;;;;;6300358;28;20222;-64
2022/02/15 11:14:04;;;;;;;5.53;4.93;;;43.20;12.70;;;;;;6300840;28;20235;-63
2022/02/15 11:17:14;;;;;;;6.07;5.00;;;42.90;12.60;;;;;;6300325;28;20226;-63
2022/02/15 11:20:20;;;;;;;10.38;5.85;;;40.40;13.10;;;;;;6300642;28;20226;-63
2022/02/15 11:23:25;;;;;;;9.88;6.28;;;35.60;15.20;;;;;;6300414;28;20698;-63
2022/02/15 11:26:33;;;;;;;6.63;5.67;;;30.80;18.40;;;;;;6300557;28;20226;-63
2022/02/15 11:29:36;;;;;;;8.13;5.83;;;27.50;20.90;;;;;;6300364;28;20238;-63
2022/02/15 11:32:43;;;;;;;10.33;6.00;;;25.10;23.10;;;;;;6300199;28;20230;-63
2022/02/15 11:35:56;;;;;;;9.67;6.30;;;23.70;24.50;;;;;;6300147;28;20242;-63
2022/02/15 11:39:02;;;;;;;10.80;5.70;;;22.20;25.70;;;;;;6300153;28;20237;-63
2022/02/15 11:42:16;;;;;;;9.40;5.70;;;21.20;27.00;;;;;;6300230;28;20246;-63
2022/02/15 11:45:26;;;;;;;8.50;5.90;;;20.20;28.00;;;;;;6300111;28;20242;-63
2022/02/15 11:48:37;;;;;;;12.90;5.97;;;19.50;28.80;;;;;;6299848;28;20227;-63
2022/02/15 11:51:43;;;;;;;8.77;5.50;;;18.70;30.00;;;;;;6299920;28;20306;-63
2022/02/15 11:54:47;;;;;;;10.90;5.77;;;17.90;31.20;;;;;;6300228;28;20227;-63
2022/02/15 11:57:51;;;;;;;11.90;5.50;;;17.30;32.50;;;;;;6299952;28;20227;-63
2022/02/15 12:00:54;;;;;;;9.43;5.47;;;16.90;33.60;;;;;;6299686;28;20469;-62
2022/02/15 12:03:59;;;;;;;6.30;5.63;;;16.20;34.90;;;;;;6299867;28;20496;-62
2022/02/15 12:07:05;;;;;;;8.00;6.10;;;15.70;35.90;;;;;;6295495;28;20493;-62
2022/02/15 12:10:09;;;;;;;11.67;6.33;;;15.50;36.40;;;;;;6300826;28;20477;-63
2022/02/15 12:13:15;;;;;;;8.50;6.10;;;15.40;37.00;;;;;;6300528;28;20472;-63
2022/02/15 12:16:19;;;;;;;9.90;5.97;;;15.20;37.80;;;;;;6305186;28;20449;-63
2022/02/15 12:19:23;;;;;;;12.00;6.07;;;14.90;38.80;;;;;;6305130;28;20452;-63
2022/02/15 12:22:29;;;;;;;8.27;5.80;;;14.40;39.90;;;;;;6305340;28;20472;-63
2022/02/15 12:25:32;;;;;;;6.30;5.20;;;14.10;41.70;;;;;;6304864;28;20469;-63
2022/02/15 12:28:35;;;;;;;7.53;5.70;;;13.70;43.30;;;;;;6305252;28;20480;-63
2022/02/15 12:31:40;;;;;;;7.60;5.40;;;13.40;43.70;;;;;;6304233;28;20543;-62
2022/02/15 12:34:43;;;;;;;9.93;6.10;;;12.80;44.90;;;;;;6304511;28;20473;-62
2022/02/15 12:37:50;;;;;;;9.17;6.53;;;12.40;46.10;;;;;;6304303;28;20473;-62
2022/02/15 12:40:53;;;;;;;7.23;4.50;;;12.20;47.20;;;;;;6304059;28;20479;-62
2022/02/15 12:43:57;;;;;;;6.90;5.93;;;11.80;48.70;;;;;;6304134;28;20485;-62
2022/02/15 12:47:01;;;;;;;9.73;6.33;;;11.50;50.60;;;;;;6305953;28;20479;-65
2022/02/15 12:50:05;;;;;;;10.50;5.70;;;11.30;52.20;;;;;;6304877;28;20491;-63
2022/02/15 12:53:10;;;;;;;9.07;5.93;;;11.20;54.50;;;;;;6303689;28;20859;-62
2022/02/15 12:56:14;;;;;;;10.33;6.10;;;11.20;57.40;;;;;;6304015;28;20837;-63
2022/02/15 12:59:20;;;;;;;9.23;6.27;;;10.90;62.30;;;;;;6303675;28;21018;-63
2022/02/15 13:02:25;;;;;;;9.97;6.70;;;10.70;69.90;;;;;;6303775;28;20491;-63
2022/02/15 13:05:32;;;;;;;16.37;6.37;;;10.50;76.30;;;;;;6303571;28;20986;-63
2022/02/15 13:08:45;;;;;;;8.43;6.10;;;10.50;82.80;;;;;;6303822;28;20570;-63
2022/02/15 13:11:57;;;;;;;9.33;7.40;;;10.60;87.90;;;;;;6303046;28;20482;-63
2022/02/15 13:15:02;;;;;;;9.53;7.07;;;10.50;90.80;;;;;;6304562;28;20469;-63
2022/02/15 13:18:07;;;;;;;9.40;7.77;;;10.50;91.80;;;;;;6303608;28;20479;-62
2022/02/15 13:21:15;;;;;;;7.13;6.40;;;10.50;92.00;;;;;;6303499;28;20981;-63
2022/02/15 13:24:21;;;;;;;9.33;6.60;;;10.50;92.50;;;;;;6304023;28;20485;-63
2022/02/15 13:27:32;;;;;;;8.93;7.80;;;10.50;93.10;;;;;;6303343;28;20994;-62
2022/02/15 13:30:36;;;;;;;13.50;8.03;;;10.50;94.00;;;;;;6303519;28;20947;-63
2022/02/15 13:33:41;;;;;;;13.63;10.00;;;10.50;94.40;;;;;;6303029;28;20480;-63
2022/02/15 13:36:47;;;;;;;20.07;17.27;;;10.50;94.90;;;;;;6302682;28;20506;-63
2022/02/15 13:39:51;;;;;;;10.73;9.43;;;10.60;95.60;;;;;;6302903;28;20495;-62
2022/02/15 13:42:55;;;;;;;13.40;10.27;;;10.60;96.10;;;;;;6302806;28;20475;-62
2022/02/15 13:45:59;;;;;;;9.17;8.20;;;10.60;96.90;;;;;;6303017;28;20495;-62
2022/02/15 13:49:02;;;;;;;8.80;7.73;;;10.60;97.50;;;;;;6302606;28;20479;-62
2022/02/15 13:52:06;;;;;;;12.70;8.93;;;10.60;97.70;;;;;;6302572;28;20483;-62
2022/02/15 13:55:11;;;;;;;10.40;8.30;;;10.50;98.10;;;;;;6303023;28;20455;-62
2022/02/15 13:58:14;;;;;;;11.83;9.57;;;10.50;98.40;;;;;;6302670;28;20452;-62
2022/02/15 14:01:17;;;;;;;15.80;12.13;;;10.50;98.60;;;;;;6302506;28;20456;-64
2022/02/15 14:04:26;;;;;;;12.73;8.13;;;10.50;98.80;;;;;;6301790;28;20444;-63
2022/02/15 14:07:30;;;;;;;8.23;7.23;;;10.50;99.10;;;;;;6303231;28;20477;-62
2022/02/15 14:10:34;;;;;;;8.93;6.60;;;10.50;99.30;;;;;;6305410;28;20476;-63
2022/02/15 14:13:37;;;;;;;11.20;10.10;;;10.50;99.60;;;;;;6307203;28;20475;-62
2022/02/15 14:16:41;;;;;;;13.10;9.73;;;10.50;99.60;;;;;;6308314;28;20998;-63
2022/02/15 14:19:44;;;;;;;7.40;6.70;;;10.40;99.80;;;;;;6306245;28;20472;-63
2022/02/15 14:22:48;;;;;;;9.87;7.00;;;10.40;99.90;;;;;;6301902;28;20486;-62
2022/02/15 14:25:52;;;;;;;8.30;6.13;;;10.30;99.90;;;;;;6302316;28;20484;-62
2022/02/15 14:28:56;;;;;;;8.30;7.00;;;10.30;99.90;;;;;;6302028;28;20472;-62
2022/02/15 14:31:59;;;;;;;9.27;6.63;;;10.30;99.90;;;;;;6301471;28;20472;-62
2022/02/15 14:35:02;;;;;;;7.60;6.90;;;10.30;99.90;;;;;;6302148;28;20473;-62
2022/02/15 14:38:06;;;;;;;10.23;6.20;;;10.30;99.90;;;;;;6300852;28;20987;-62
2022/02/15 14:41:11;;;;;;;11.00;6.67;;;10.30;99.90;;;;;;6302333;28;20468;-62
2022/02/15 14:44:14;;;;;;;8.53;6.40;;;10.30;99.90;;;;;;6301116;28;20477;-63
2022/02/15 14:47:20;;;;;;;8.30;6.50;;;10.30;99.90;;;;;;6301447;28;20484;-62
2022/02/15 14:50:24;;;;;;;10.07;7.40;;;10.20;99.90;;;;;;6301285;28;20495;-62
2022/02/15 14:53:27;;;;;;;9.23;8.27;;;10.30;99.90;;;;;;6301430;28;20467;-62
2022/02/15 14:56:39;;;;;;;10.30;7.77;;;10.20;99.90;;;;;;6301326;28;20555;-63
2022/02/15 14:59:42;;;;;;;7.73;6.57;;;10.20;99.90;;;;;;6301103;28;20475;-62
2022/02/15 15:02:45;;;;;;;9.47;8.00;;;10.10;99.90;;;;;;6300695;28;20481;-62
2022/02/15 15:05:52;;;;;;;8.33;7.43;;;10.10;99.90;;;;;;6300569;28;20488;-63
2022/02/15 15:08:55;;;;;;;12.67;6.37;;;10.00;99.90;;;;;;6300726;28;20476;-62
2022/02/15 15:11:59;;;;;;;8.50;6.37;;;10.00;99.90;;;;;;6300907;28;20485;-62
2022/02/15 15:15:03;;;;;;;8.70;6.93;;;10.00;99.90;;;;;;6300643;28;20473;-62
2022/02/15 15:18:06;;;;;;;6.77;6.17;;;10.00;99.90;;;;;;6300385;28;20796;-62
2022/02/15 15:21:10;;;;;;;11.43;10.33;;;10.00;99.90;;;;;;6300575;28;20855;-62
2022/02/15 15:24:15;;;;;;;9.87;7.20;;;10.00;99.90;;;;;;6300686;28;20491;-62
2022/02/15 15:27:21;;;;;;;14.07;7.70;;;10.00;99.90;;;;;;6300466;28;20472;-62
2022/02/15 15:30:25;;;;;;;11.10;7.53;;;10.00;99.90;;;;;;6300582;28;20487;-62
2022/02/15 15:33:28;;;;;;;9.70;8.70;;;10.00;99.90;;;;;;6300527;28;20480;-63
2022/02/15 15:36:32;;;;;;;11.30;7.10;;;10.00;99.90;;;;;;6300409;28;21023;-62
2022/02/15 15:39:36;;;;;;;10.30;8.73;;;10.00;99.90;;;;;;6300847;28;20483;-63
2022/02/15 15:42:42;;;;;;;18.47;11.80;;;10.00;99.90;;;;;;6300027;28;20471;-62
2022/02/15 15:45:45;;;;;;;13.20;10.00;;;10.00;99.90;;;;;;6300420;28;20618;-62
2022/02/15 15:48:48;;;;;;;11.37;10.30;;;10.00;99.90;;;;;;6300038;28;20505;-62
2022/02/15 15:51:52;;;;;;;15.10;11.10;;;9.90;99.90;;;;;;6300353;28;20496;-62
2022/02/15 15:54:55;;;;;;;12.50;10.70;;;9.80;99.90;;;;;;6300605;28;20488;-61
2022/02/15 15:57:59;;;;;;;11.17;9.87;;;9.80;99.90;;;;;;6300319;28;20480;-61
2022/02/15 16:01:02;;;;;;;9.70;8.00;;;9.80;99.90;;;;;;6301476;28;20477;-62